Impacts METAR Board
IDs:

KHBG - Hattiesburg/Chain Mu, MS, US

Updated at: 0200 UTC 24 Apr 2019
Potential Impact None Slight Moderate High
Time 23/14Z 23/15Z 23/16Z 23/17Z 23/18Z 23/19Z 23/20Z 23/21Z 23/22Z 23/23Z 24/00Z 24/01Z 24/02Z
Temp61 68 72 78 78 78 78 78 77 74 71 68 67
Dewpt56 58 57 57 52 50 53 54 56 55 57 59 59
Altim30.17 30.17 30.15 30.15 30.13 30.12 30.10 30.08 30.07 30.07 30.06 30.04 30.05
VIS10 10 10 10 10 10 10 10 10 10 10 10 10
CIG-- -- -- -- -- -- -- -- -- -- -- -- --
CoverCLRCLRCLRCLRCLRCLRCLRCLRCLRCLRCLRCLRCLR
FltCatVFRVFRVFRVFRVFRVFRVFRVFRVFRVFRVFRVFRVFR
WX--------------------------
WDir7003200210230220210180200190120220
WSpd3 0 3 0 7 5 6 5 7 6 4 3 4
WGst-- -- -- -- -- -- -- -- -- -- -- -- --
Raw hourly METARs
KHBG 231353Z AUTO 07003KT 10SM CLR 16/13 A3017 RMK AO2 SLP213 T01610133
KHBG 231453Z AUTO 00000KT 10SM CLR 20/14 A3017 RMK AO2 SLP213 T02000144 51003
KHBG 231553Z AUTO 32003KT 10SM CLR 22/14 A3015 RMK AO2 SLP209 T02220139
KHBG 231653Z AUTO 00000KT 10SM CLR 26/14 A3015 RMK AO2 SLP206 T02560139
KHBG 231753Z AUTO 21007KT 10SM CLR 26/11 A3013 RMK AO2 SLP201 T02560111 10261 20100 58012
KHBG 231853Z AUTO 23005KT 10SM CLR 26/10 A3012 RMK AO2 SLP196 T02560100
KHBG 231953Z AUTO 22006KT 10SM CLR 26/12 A3010 RMK AO2 SLP190 T02560117
KHBG 232053Z AUTO 21005KT 10SM CLR 26/12 A3008 RMK AO2 SLP182 T02560122 58019
KHBG 232153Z AUTO 18007KT 10SM CLR 25/13 A3007 RMK AO2 SLP182 T02500133
KHBG 232253Z AUTO 20006KT 10SM CLR 23/13 A3007 RMK AO2 SLP181 T02330128
KHBG 232353Z AUTO 19004KT 10SM CLR 22/14 A3006 RMK AO2 SLP178 T02170139 10261 20217 58005
KHBG 240053Z AUTO 12003KT 10SM CLR 20/15 A3004 RMK AO2 SLP168 T02000150
KHBG 240153Z AUTO 22004KT 10SM CLR 19/15 A3005 RMK AO2 SLP174 T01940150



Page loaded:  02:57 UTC  |   07:57 PM Pacific  |   08:57 PM Mountain  |   09:57 PM Central  |   10:57 PM Eastern

 

ADVISORIES

FORECASTS

FORECASTS

OBSERVATIONS

USER TOOLS

ABOUT US